sensor_id;sensor_type;location;lat;lon;timestamp;P1;durP1;ratioP1;P2;durP2;ratioP2
18695;SDS011;22617;43.690;27.956;2023-06-26T00:03:35;15.15;;;7.05;;
18695;SDS011;22617;43.690;27.956;2023-06-26T00:08:39;16.83;;;7.15;;
18695;SDS011;22617;43.690;27.956;2023-06-26T00:13:43;19.27;;;7.90;;
18695;SDS011;22617;43.690;27.956;2023-06-26T00:18:48;14.27;;;7.88;;
18695;SDS011;22617;43.690;27.956;2023-06-26T00:23:51;22.67;;;8.38;;
18695;SDS011;22617;43.690;27.956;2023-06-26T00:28:55;17.67;;;9.00;;
18695;SDS011;22617;43.690;27.956;2023-06-26T00:34:00;24.13;;;10.75;;
18695;SDS011;22617;43.690;27.956;2023-06-26T00:39:04;25.15;;;11.43;;
18695;SDS011;22617;43.690;27.956;2023-06-26T00:44:09;24.40;;;11.95;;
18695;SDS011;22617;43.690;27.956;2023-06-26T00:49:14;26.45;;;12.88;;
18695;SDS011;22617;43.690;27.956;2023-06-26T00:54:18;20.85;;;12.95;;
18695;SDS011;22617;43.690;27.956;2023-06-26T00:59:24;25.20;;;15.43;;
18695;SDS011;22617;43.690;27.956;2023-06-26T01:04:31;28.83;;;15.43;;
18695;SDS011;22617;43.690;27.956;2023-06-26T01:09:35;26.35;;;15.30;;
18695;SDS011;22617;43.690;27.956;2023-06-26T01:14:39;29.23;;;16.90;;
18695;SDS011;22617;43.690;27.956;2023-06-26T01:19:45;26.35;;;15.18;;
18695;SDS011;22617;43.690;27.956;2023-06-26T01:24:53;28.65;;;17.20;;
18695;SDS011;22617;43.690;27.956;2023-06-26T01:30:15;21.88;;;15.77;;
18695;SDS011;22617;43.690;27.956;2023-06-26T01:35:20;24.38;;;15.73;;
18695;SDS011;22617;43.690;27.956;2023-06-26T01:40:24;24.42;;;15.27;;
18695;SDS011;22617;43.690;27.956;2023-06-26T01:45:31;23.50;;;15.15;;
18695;SDS011;22617;43.690;27.956;2023-06-26T01:50:36;19.88;;;13.50;;
18695;SDS011;22617;43.690;27.956;2023-06-26T01:55:42;22.40;;;14.43;;
18695;SDS011;22617;43.690;27.956;2023-06-26T02:00:55;21.25;;;13.18;;
18695;SDS011;22617;43.690;27.956;2023-06-26T02:05:59;24.83;;;14.18;;
18695;SDS011;22617;43.690;27.956;2023-06-26T02:11:03;21.65;;;13.80;;
18695;SDS011;22617;43.690;27.956;2023-06-26T02:16:08;21.20;;;13.60;;
18695;SDS011;22617;43.690;27.956;2023-06-26T02:21:12;19.52;;;13.60;;
18695;SDS011;22617;43.690;27.956;2023-06-26T02:26:16;18.45;;;12.68;;
18695;SDS011;22617;43.690;27.956;2023-06-26T02:31:21;27.10;;;13.57;;
18695;SDS011;22617;43.690;27.956;2023-06-26T02:36:25;31.20;;;15.23;;
18695;SDS011;22617;43.690;27.956;2023-06-26T02:41:29;23.00;;;15.57;;
18695;SDS011;22617;43.690;27.956;2023-06-26T02:46:34;26.38;;;16.60;;
18695;SDS011;22617;43.690;27.956;2023-06-26T02:51:38;23.02;;;15.70;;
18695;SDS011;22617;43.690;27.956;2023-06-26T02:56:51;28.92;;;18.52;;
18695;SDS011;22617;43.690;27.956;2023-06-26T03:02:05;37.03;;;19.85;;
18695;SDS011;22617;43.690;27.956;2023-06-26T03:07:16;32.53;;;20.33;;
18695;SDS011;22617;43.690;27.956;2023-06-26T03:12:20;30.92;;;18.58;;
18695;SDS011;22617;43.690;27.956;2023-06-26T03:17:25;27.45;;;18.50;;
18695;SDS011;22617;43.690;27.956;2023-06-26T03:22:35;27.85;;;17.60;;
18695;SDS011;22617;43.690;27.956;2023-06-26T03:27:38;23.08;;;16.50;;
18695;SDS011;22617;43.690;27.956;2023-06-26T03:32:44;20.45;;;14.50;;
18695;SDS011;22617;43.690;27.956;2023-06-26T03:37:48;15.07;;;11.25;;
18695;SDS011;22617;43.690;27.956;2023-06-26T03:42:51;14.57;;;10.80;;
18695;SDS011;22617;43.690;27.956;2023-06-26T03:47:57;13.02;;;10.43;;
18695;SDS011;22617;43.690;27.956;2023-06-26T03:53:01;14.20;;;11.05;;
18695;SDS011;22617;43.690;27.956;2023-06-26T03:58:05;29.05;;;14.63;;
18695;SDS011;22617;43.690;27.956;2023-06-26T04:03:09;25.73;;;15.57;;
18695;SDS011;22617;43.690;27.956;2023-06-26T04:08:13;26.60;;;16.17;;
18695;SDS011;22617;43.690;27.956;2023-06-26T04:13:17;23.63;;;16.35;;
18695;SDS011;22617;43.690;27.956;2023-06-26T04:18:22;25.13;;;17.05;;
18695;SDS011;22617;43.690;27.956;2023-06-26T04:23:25;23.33;;;16.27;;
18695;SDS011;22617;43.690;27.956;2023-06-26T04:28:29;24.10;;;16.52;;
18695;SDS011;22617;43.690;27.956;2023-06-26T04:33:34;24.52;;;16.83;;
18695;SDS011;22617;43.690;27.956;2023-06-26T04:38:43;29.75;;;17.00;;
18695;SDS011;22617;43.690;27.956;2023-06-26T04:43:46;24.58;;;17.55;;
18695;SDS011;22617;43.690;27.956;2023-06-26T04:48:52;28.88;;;17.88;;
18695;SDS011;22617;43.690;27.956;2023-06-26T04:53:55;31.98;;;18.40;;
18695;SDS011;22617;43.690;27.956;2023-06-26T04:58:59;26.80;;;18.15;;
18695;SDS011;22617;43.690;27.956;2023-06-26T05:04:04;30.25;;;19.20;;
18695;SDS011;22617;43.690;27.956;2023-06-26T05:09:07;28.63;;;19.95;;
18695;SDS011;22617;43.690;27.956;2023-06-26T05:14:12;26.52;;;18.25;;
18695;SDS011;22617;43.690;27.956;2023-06-26T05:19:17;26.25;;;17.80;;
18695;SDS011;22617;43.690;27.956;2023-06-26T05:24:21;28.00;;;17.65;;
18695;SDS011;22617;43.690;27.956;2023-06-26T05:29:26;28.58;;;19.10;;
18695;SDS011;22617;43.690;27.956;2023-06-26T05:34:32;27.92;;;20.13;;
18695;SDS011;22617;43.690;27.956;2023-06-26T05:39:36;29.80;;;19.80;;
18695;SDS011;22617;43.690;27.956;2023-06-26T05:44:40;29.60;;;20.48;;
18695;SDS011;22617;43.690;27.956;2023-06-26T05:49:45;24.63;;;19.30;;
18695;SDS011;22617;43.690;27.956;2023-06-26T05:54:49;25.88;;;19.20;;
18695;SDS011;22617;43.690;27.956;2023-06-26T05:59:53;23.92;;;16.95;;
18695;SDS011;22617;43.690;27.956;2023-06-26T06:04:59;23.88;;;16.05;;
18695;SDS011;22617;43.690;27.956;2023-06-26T06:10:05;20.90;;;16.55;;
18695;SDS011;22617;43.690;27.956;2023-06-26T06:15:09;21.77;;;14.70;;
18695;SDS011;22617;43.690;27.956;2023-06-26T06:20:14;20.90;;;14.52;;
18695;SDS011;22617;43.690;27.956;2023-06-26T06:25:18;23.40;;;14.73;;
18695;SDS011;22617;43.690;27.956;2023-06-26T06:30:22;30.38;;;20.35;;
18695;SDS011;22617;43.690;27.956;2023-06-26T06:35:47;23.38;;;17.67;;
18695;SDS011;22617;43.690;27.956;2023-06-26T06:40:52;17.73;;;13.57;;
18695;SDS011;22617;43.690;27.956;2023-06-26T06:45:56;16.73;;;11.90;;
18695;SDS011;22617;43.690;27.956;2023-06-26T06:51:02;17.27;;;12.35;;
18695;SDS011;22617;43.690;27.956;2023-06-26T06:56:10;14.50;;;11.70;;
18695;SDS011;22617;43.690;27.956;2023-06-26T07:01:15;14.80;;;11.35;;
18695;SDS011;22617;43.690;27.956;2023-06-26T07:06:21;21.70;;;15.35;;
18695;SDS011;22617;43.690;27.956;2023-06-26T07:11:25;18.95;;;12.35;;
18695;SDS011;22617;43.690;27.956;2023-06-26T07:16:30;16.70;;;11.00;;
18695;SDS011;22617;43.690;27.956;2023-06-26T07:21:36;15.70;;;11.95;;
18695;SDS011;22617;43.690;27.956;2023-06-26T07:26:40;14.30;;;10.75;;
18695;SDS011;22617;43.690;27.956;2023-06-26T07:31:47;15.43;;;10.88;;
18695;SDS011;22617;43.690;27.956;2023-06-26T07:36:53;13.95;;;10.05;;
18695;SDS011;22617;43.690;27.956;2023-06-26T07:41:58;13.68;;;9.73;;
18695;SDS011;22617;43.690;27.956;2023-06-26T07:47:02;18.02;;;9.82;;
18695;SDS011;22617;43.690;27.956;2023-06-26T07:52:09;12.75;;;9.38;;
18695;SDS011;22617;43.690;27.956;2023-06-26T07:57:13;12.23;;;8.68;;
18695;SDS011;22617;43.690;27.956;2023-06-26T08:02:17;15.68;;;9.88;;
18695;SDS011;22617;43.690;27.956;2023-06-26T08:07:23;13.63;;;10.43;;
18695;SDS011;22617;43.690;27.956;2023-06-26T08:17:57;13.50;;;10.05;;
18695;SDS011;22617;43.690;27.956;2023-06-26T08:28:50;11.23;;;7.35;;
18695;SDS011;22617;43.690;27.956;2023-06-26T08:33:59;12.63;;;9.70;;
18695;SDS011;22617;43.690;27.956;2023-06-26T09:03:58;9.75;;;5.60;;
18695;SDS011;22617;43.690;27.956;2023-06-26T09:09:02;9.90;;;5.60;;
18695;SDS011;22617;43.690;27.956;2023-06-26T09:14:05;9.60;;;6.40;;
18695;SDS011;22617;43.690;27.956;2023-06-26T09:19:15;12.10;;;7.78;;
18695;SDS011;22617;43.690;27.956;2023-06-26T09:24:38;7.32;;;5.78;;
18695;SDS011;22617;43.690;27.956;2023-06-26T09:29:52;7.78;;;5.10;;
18695;SDS011;22617;43.690;27.956;2023-06-26T09:35:35;7.22;;;4.60;;
18695;SDS011;22617;43.690;27.956;2023-06-26T09:41:15;7.63;;;4.35;;
18695;SDS011;22617;43.690;27.956;2023-06-26T09:47:30;7.50;;;4.60;;
18695;SDS011;22617;43.690;27.956;2023-06-26T09:54:02;7.60;;;4.40;;
18695;SDS011;22617;43.690;27.956;2023-06-26T09:59:15;5.57;;;4.22;;
18695;SDS011;22617;43.690;27.956;2023-06-26T10:04:18;6.35;;;4.30;;
18695;SDS011;22617;43.690;27.956;2023-06-26T10:09:25;6.43;;;4.22;;
18695;SDS011;22617;43.690;27.956;2023-06-26T10:14:31;9.95;;;4.43;;
18695;SDS011;22617;43.690;27.956;2023-06-26T10:19:38;4.68;;;3.80;;
18695;SDS011;22617;43.690;27.956;2023-06-26T10:24:44;4.72;;;3.90;;
18695;SDS011;22617;43.690;27.956;2023-06-26T10:29:50;5.80;;;3.78;;
18695;SDS011;22617;43.690;27.956;2023-06-26T10:34:57;4.20;;;3.20;;
18695;SDS011;22617;43.690;27.956;2023-06-26T10:40:02;6.18;;;4.22;;
18695;SDS011;22617;43.690;27.956;2023-06-26T10:45:10;4.55;;;3.42;;
18695;SDS011;22617;43.690;27.956;2023-06-26T10:50:17;5.50;;;3.55;;
18695;SDS011;22617;43.690;27.956;2023-06-26T10:55:28;4.28;;;3.78;;
18695;SDS011;22617;43.690;27.956;2023-06-26T11:00:32;8.00;;;4.15;;
18695;SDS011;22617;43.690;27.956;2023-06-26T11:05:36;6.53;;;3.90;;
18695;SDS011;22617;43.690;27.956;2023-06-26T11:10:53;5.25;;;3.85;;
18695;SDS011;22617;43.690;27.956;2023-06-26T11:15:58;7.25;;;4.22;;
18695;SDS011;22617;43.690;27.956;2023-06-26T11:21:05;6.38;;;4.05;;
18695;SDS011;22617;43.690;27.956;2023-06-26T11:26:14;7.18;;;3.78;;
18695;SDS011;22617;43.690;27.956;2023-06-26T11:31:25;5.25;;;3.92;;
18695;SDS011;22617;43.690;27.956;2023-06-26T11:36:30;5.20;;;3.58;;
18695;SDS011;22617;43.690;27.956;2023-06-26T11:41:37;5.72;;;3.55;;
18695;SDS011;22617;43.690;27.956;2023-06-26T11:46:41;6.05;;;3.72;;
18695;SDS011;22617;43.690;27.956;2023-06-26T11:51:45;5.22;;;3.35;;
18695;SDS011;22617;43.690;27.956;2023-06-26T11:56:54;5.63;;;3.47;;
18695;SDS011;22617;43.690;27.956;2023-06-26T12:02:06;6.82;;;3.38;;
18695;SDS011;22617;43.690;27.956;2023-06-26T12:07:11;5.68;;;3.35;;
18695;SDS011;22617;43.690;27.956;2023-06-26T12:12:17;7.15;;;3.75;;
18695;SDS011;22617;43.690;27.956;2023-06-26T12:17:22;4.47;;;3.40;;
18695;SDS011;22617;43.690;27.956;2023-06-26T12:22:33;4.70;;;3.33;;
18695;SDS011;22617;43.690;27.956;2023-06-26T12:27:38;4.55;;;3.40;;
18695;SDS011;22617;43.690;27.956;2023-06-26T12:32:44;7.28;;;3.42;;
18695;SDS011;22617;43.690;27.956;2023-06-26T12:37:48;4.53;;;3.22;;
18695;SDS011;22617;43.690;27.956;2023-06-26T12:42:53;7.45;;;3.55;;
18695;SDS011;22617;43.690;27.956;2023-06-26T12:48:06;5.03;;;3.78;;
18695;SDS011;22617;43.690;27.956;2023-06-26T12:53:47;5.60;;;4.05;;
18695;SDS011;22617;43.690;27.956;2023-06-26T12:58:52;5.60;;;3.60;;
18695;SDS011;22617;43.690;27.956;2023-06-26T13:03:55;6.15;;;3.67;;
18695;SDS011;22617;43.690;27.956;2023-06-26T13:08:59;8.32;;;3.60;;
18695;SDS011;22617;43.690;27.956;2023-06-26T13:14:07;5.18;;;3.80;;
18695;SDS011;22617;43.690;27.956;2023-06-26T13:19:13;5.53;;;3.60;;
18695;SDS011;22617;43.690;27.956;2023-06-26T13:24:16;4.75;;;3.60;;
18695;SDS011;22617;43.690;27.956;2023-06-26T13:29:21;7.32;;;3.80;;
18695;SDS011;22617;43.690;27.956;2023-06-26T13:34:27;4.07;;;3.35;;
18695;SDS011;22617;43.690;27.956;2023-06-26T13:45:12;7.25;;;3.58;;
18695;SDS011;22617;43.690;27.956;2023-06-26T13:50:31;4.65;;;3.70;;
18695;SDS011;22617;43.690;27.956;2023-06-26T13:55:53;4.60;;;3.22;;
18695;SDS011;22617;43.690;27.956;2023-06-26T14:00:58;7.50;;;3.58;;
18695;SDS011;22617;43.690;27.956;2023-06-26T14:06:02;5.75;;;3.38;;
18695;SDS011;22617;43.690;27.956;2023-06-26T14:11:06;6.03;;;3.38;;
18695;SDS011;22617;43.690;27.956;2023-06-26T14:16:11;4.78;;;3.55;;
18695;SDS011;22617;43.690;27.956;2023-06-26T14:21:15;5.80;;;3.72;;
18695;SDS011;22617;43.690;27.956;2023-06-26T14:26:19;4.82;;;3.60;;
18695;SDS011;22617;43.690;27.956;2023-06-26T14:31:23;4.35;;;3.47;;
18695;SDS011;22617;43.690;27.956;2023-06-26T14:36:27;5.22;;;3.53;;
18695;SDS011;22617;43.690;27.956;2023-06-26T14:41:32;4.43;;;2.90;;
18695;SDS011;22617;43.690;27.956;2023-06-26T14:46:38;5.97;;;3.33;;
18695;SDS011;22617;43.690;27.956;2023-06-26T14:51:42;4.32;;;3.35;;
18695;SDS011;22617;43.690;27.956;2023-06-26T14:56:46;4.40;;;3.10;;
18695;SDS011;22617;43.690;27.956;2023-06-26T15:01:50;4.43;;;3.25;;
18695;SDS011;22617;43.690;27.956;2023-06-26T15:06:56;5.07;;;3.22;;
18695;SDS011;22617;43.690;27.956;2023-06-26T15:12:00;6.93;;;3.50;;
18695;SDS011;22617;43.690;27.956;2023-06-26T15:17:06;4.97;;;3.30;;
18695;SDS011;22617;43.690;27.956;2023-06-26T15:22:09;6.40;;;3.40;;
18695;SDS011;22617;43.690;27.956;2023-06-26T15:27:13;4.25;;;3.58;;
18695;SDS011;22617;43.690;27.956;2023-06-26T15:32:18;4.57;;;3.28;;
18695;SDS011;22617;43.690;27.956;2023-06-26T15:37:21;3.80;;;3.15;;
18695;SDS011;22617;43.690;27.956;2023-06-26T15:42:26;4.65;;;3.25;;
18695;SDS011;22617;43.690;27.956;2023-06-26T15:47:32;6.80;;;3.55;;
18695;SDS011;22617;43.690;27.956;2023-06-26T15:52:38;4.55;;;3.15;;
18695;SDS011;22617;43.690;27.956;2023-06-26T16:10:54;5.82;;;3.47;;
18695;SDS011;22617;43.690;27.956;2023-06-26T16:17:14;4.78;;;2.92;;
18695;SDS011;22617;43.690;27.956;2023-06-26T16:22:19;7.18;;;3.00;;
18695;SDS011;22617;43.690;27.956;2023-06-26T16:27:23;5.10;;;3.25;;
18695;SDS011;22617;43.690;27.956;2023-06-26T16:32:26;9.35;;;3.50;;
18695;SDS011;22617;43.690;27.956;2023-06-26T16:37:31;6.80;;;2.97;;
18695;SDS011;22617;43.690;27.956;2023-06-26T16:42:55;5.28;;;3.28;;
18695;SDS011;22617;43.690;27.956;2023-06-26T16:48:40;3.72;;;3.05;;
18695;SDS011;22617;43.690;27.956;2023-06-26T17:19:13;5.32;;;3.10;;
18695;SDS011;22617;43.690;27.956;2023-06-26T17:24:34;4.70;;;3.55;;
18695;SDS011;22617;43.690;27.956;2023-06-26T17:29:38;5.80;;;3.40;;
18695;SDS011;22617;43.690;27.956;2023-06-26T17:34:44;6.70;;;3.70;;
18695;SDS011;22617;43.690;27.956;2023-06-26T17:39:47;5.22;;;3.60;;
18695;SDS011;22617;43.690;27.956;2023-06-26T17:44:51;5.85;;;3.90;;
18695;SDS011;22617;43.690;27.956;2023-06-26T17:55:33;7.30;;;3.85;;
18695;SDS011;22617;43.690;27.956;2023-06-26T18:00:36;6.00;;;3.83;;
18695;SDS011;22617;43.690;27.956;2023-06-26T18:05:40;5.82;;;3.35;;
18695;SDS011;22617;43.690;27.956;2023-06-26T18:10:45;5.68;;;3.70;;
18695;SDS011;22617;43.690;27.956;2023-06-26T18:15:48;4.60;;;3.33;;
18695;SDS011;22617;43.690;27.956;2023-06-26T18:20:52;6.03;;;3.67;;
18695;SDS011;22617;43.690;27.956;2023-06-26T18:25:57;5.03;;;3.75;;
18695;SDS011;22617;43.690;27.956;2023-06-26T18:31:00;10.57;;;5.25;;
18695;SDS011;22617;43.690;27.956;2023-06-26T18:36:06;6.45;;;3.53;;
18695;SDS011;22617;43.690;27.956;2023-06-26T18:46:45;5.72;;;3.55;;
18695;SDS011;22617;43.690;27.956;2023-06-26T18:51:48;5.22;;;3.95;;
18695;SDS011;22617;43.690;27.956;2023-06-26T18:56:53;4.60;;;3.55;;
18695;SDS011;22617;43.690;27.956;2023-06-26T19:02:03;6.25;;;4.05;;
18695;SDS011;22617;43.690;27.956;2023-06-26T19:07:07;6.55;;;4.40;;
18695;SDS011;22617;43.690;27.956;2023-06-26T19:12:11;7.80;;;3.95;;
18695;SDS011;22617;43.690;27.956;2023-06-26T19:17:15;5.63;;;3.92;;
18695;SDS011;22617;43.690;27.956;2023-06-26T19:22:19;7.85;;;4.30;;
18695;SDS011;22617;43.690;27.956;2023-06-26T19:27:24;5.25;;;3.65;;
18695;SDS011;22617;43.690;27.956;2023-06-26T19:32:28;6.82;;;4.50;;
18695;SDS011;22617;43.690;27.956;2023-06-26T19:37:31;7.80;;;3.90;;
18695;SDS011;22617;43.690;27.956;2023-06-26T19:42:47;4.65;;;3.63;;
18695;SDS011;22617;43.690;27.956;2023-06-26T19:47:51;6.53;;;4.43;;
18695;SDS011;22617;43.690;27.956;2023-06-26T19:52:56;5.25;;;3.75;;
18695;SDS011;22617;43.690;27.956;2023-06-26T19:58:01;5.43;;;4.00;;
18695;SDS011;22617;43.690;27.956;2023-06-26T20:03:04;5.60;;;3.88;;
18695;SDS011;22617;43.690;27.956;2023-06-26T20:08:08;6.18;;;3.92;;
18695;SDS011;22617;43.690;27.956;2023-06-26T20:13:13;7.63;;;4.45;;
18695;SDS011;22617;43.690;27.956;2023-06-26T20:18:17;8.82;;;4.65;;
18695;SDS011;22617;43.690;27.956;2023-06-26T20:23:20;7.25;;;4.18;;
18695;SDS011;22617;43.690;27.956;2023-06-26T20:28:25;6.10;;;4.18;;
18695;SDS011;22617;43.690;27.956;2023-06-26T20:33:29;5.15;;;3.60;;
18695;SDS011;22617;43.690;27.956;2023-06-26T20:38:32;6.90;;;3.78;;
18695;SDS011;22617;43.690;27.956;2023-06-26T20:43:38;5.20;;;3.97;;
18695;SDS011;22617;43.690;27.956;2023-06-26T20:48:43;7.93;;;3.88;;
18695;SDS011;22617;43.690;27.956;2023-06-26T20:53:48;6.32;;;4.43;;
18695;SDS011;22617;43.690;27.956;2023-06-26T20:58:53;7.40;;;4.05;;
18695;SDS011;22617;43.690;27.956;2023-06-26T21:03:57;6.90;;;3.92;;
18695;SDS011;22617;43.690;27.956;2023-06-26T21:09:00;8.80;;;5.07;;
18695;SDS011;22617;43.690;27.956;2023-06-26T21:14:05;5.20;;;3.88;;
18695;SDS011;22617;43.690;27.956;2023-06-26T21:19:09;9.63;;;4.20;;
18695;SDS011;22617;43.690;27.956;2023-06-26T21:24:13;5.85;;;4.13;;
18695;SDS011;22617;43.690;27.956;2023-06-26T21:29:18;5.93;;;4.35;;
18695;SDS011;22617;43.690;27.956;2023-06-26T21:34:21;7.93;;;4.90;;
18695;SDS011;22617;43.690;27.956;2023-06-26T21:39:25;8.30;;;5.00;;
18695;SDS011;22617;43.690;27.956;2023-06-26T21:44:30;8.23;;;5.30;;
18695;SDS011;22617;43.690;27.956;2023-06-26T21:49:33;9.85;;;4.97;;
18695;SDS011;22617;43.690;27.956;2023-06-26T21:54:37;10.45;;;5.20;;
18695;SDS011;22617;43.690;27.956;2023-06-26T21:59:41;8.23;;;5.10;;
18695;SDS011;22617;43.690;27.956;2023-06-26T22:04:45;8.95;;;5.03;;
18695;SDS011;22617;43.690;27.956;2023-06-26T22:09:49;7.88;;;4.80;;
18695;SDS011;22617;43.690;27.956;2023-06-26T22:14:55;8.70;;;5.10;;
18695;SDS011;22617;43.690;27.956;2023-06-26T22:19:59;8.50;;;5.07;;
18695;SDS011;22617;43.690;27.956;2023-06-26T22:25:03;8.27;;;5.45;;
18695;SDS011;22617;43.690;27.956;2023-06-26T22:30:09;9.50;;;5.13;;
18695;SDS011;22617;43.690;27.956;2023-06-26T22:35:13;7.80;;;4.70;;
18695;SDS011;22617;43.690;27.956;2023-06-26T22:40:17;7.13;;;4.90;;
18695;SDS011;22617;43.690;27.956;2023-06-26T22:45:22;8.52;;;5.20;;
18695;SDS011;22617;43.690;27.956;2023-06-26T22:50:26;8.93;;;5.45;;
18695;SDS011;22617;43.690;27.956;2023-06-26T22:55:29;9.05;;;4.78;;
18695;SDS011;22617;43.690;27.956;2023-06-26T23:00:35;9.18;;;5.28;;
18695;SDS011;22617;43.690;27.956;2023-06-26T23:05:40;9.68;;;5.50;;
18695;SDS011;22617;43.690;27.956;2023-06-26T23:10:45;7.70;;;4.90;;
18695;SDS011;22617;43.690;27.956;2023-06-26T23:15:49;6.55;;;5.00;;
18695;SDS011;22617;43.690;27.956;2023-06-26T23:20:53;6.72;;;4.68;;
18695;SDS011;22617;43.690;27.956;2023-06-26T23:25:57;22.65;;;7.20;;
18695;SDS011;22617;43.690;27.956;2023-06-26T23:31:02;6.03;;;4.30;;
18695;SDS011;22617;43.690;27.956;2023-06-26T23:36:06;6.03;;;4.80;;
18695;SDS011;22617;43.690;27.956;2023-06-26T23:41:11;7.10;;;4.93;;
18695;SDS011;22617;43.690;27.956;2023-06-26T23:46:17;7.03;;;4.85;;
18695;SDS011;22617;43.690;27.956;2023-06-26T23:51:20;10.52;;;5.15;;
18695;SDS011;22617;43.690;27.956;2023-06-26T23:56:24;7.60;;;5.43;;
